Vliegveldwaarnemingen Nederland - (AUTO) METAR

Luchtvaartmeteorologische informatie voor operationeel gebruik en vluchtvoorbereiding is beschikbaar op www.luchtvaartmeteo.nl.

ZCZC
SA041155 EHFS     VLISSINGEN AWS   NLD   8 m.
METAR EHFS 041155Z AUTO 14002KT 9999 NSC 21/10 Q1013=

ZCZC
SA041155 EHSG     BSA   NLD   43 m.
METAR EHSG 041155Z AUTO VRB01KT //// // NCD 18/13 Q1013 RE//=

ZCZC
SA041225 EHKD     DE KOOY/DE KOOY   NLD   1 m.
METAR EHKD 041225Z AUTO 06010KT 030V090 9999 NCD 19/13 Q1013
BLU NOSIG=

ZCZC
SA041225 EHFD     F3-FB-1   NLD   50 m.
METAR EHFD 041225Z AUTO VRB03KT 9999 NCD 17/10 Q1015=

ZCZC
SA041225 EHAM     AMSTERDAM/SCHIPHOL   NLD   -3 m.
METAR EHAM 041225Z 08005KT 010V130 9999 FEW034 22/13 Q1013 NOSIG=

ZCZC
SA041225 EHVL     VLIELAND   NLD   10 m.
METAR EHVL 041225Z AUTO 08008KT 010V110 9999 SCT029 20/13 Q1014 BLU=

ZCZC
SA041225 EHJR     K13-A   NLD   37 m.
METAR EHJR 041225Z AUTO 08012KT //// // ///////// 14/13 Q1015 RE//
W17/H6=

ZCZC
SA041225 EHLE     LELYSTAD/LELYSTAD   NLD   -3 m.
METAR EHLE 041225Z AUTO 08006KT 030V120 9999 SCT039 20/13 Q1013 TEMPO
6000 SHRA FEW025CB=

ZCZC
SA041225 EHLW     LEEUWARDEN/LEEUWARDEN   NLD   1 m.
METAR EHLW 041225Z AUTO VRB06KT 9999 BKN036 BKN045 BKN079 20/11 Q1014

BLU NOSIG=

ZCZC
SA041225 EHDL     ARNHEM/DEELEN   NLD   48 m.
METAR EHDL 041225Z AUTO 05003KT 350V140 9999 FEW032CB SCT060 BKN066
20/12 Q1013 BLU=

ZCZC
SA041225 EHGG     GRONINGEN/EELDE   NLD   5 m.
METAR EHGG 041225Z AUTO 03008KT 350V060 9999 BKN036 20/12 Q1014
NOSIG=

ZCZC
SA041225 EHSC     LICHTEILAND GOEREE   NLD   22 m.
METAR EHSC 041225Z AUTO VRB02KT 9999 ///////// 18/12 Q1013 W19/H5=

ZCZC
SA041225 EHSA     EURO PLATFORM   NLD   19 m.
METAR EHSA 041225Z AUTO VRB02KT 9999 ///////// 18/13 Q1013 W18/H5=

ZCZC
SA041225 EHWO     WOENSDRECHT/WOENSDRECHT   NLD   19 m.
METAR EHWO 041225Z AUTO 11005KT 9999 -RA FEW061 BKN076 OVC081 17/14
Q1013 RERA REDZ
BLU TEMPO 4000 SHRA FEW012 SCT025CB=

ZCZC
SA041225 EHRD     ROTTERDAM/THE HAGUE AIRPORT   NLD   -5 m.
METAR EHRD 041225Z AUTO VRB04KT 9999 FEW037CB BKN042 OVC047 21/12
Q1013 TEMPO 6000 SHRA=

ZCZC
SA041225 EHGR     GILZE-RIJEN/GILZE-RIJEN   NLD   14 m.
METAR EHGR 041225Z AUTO VRB04KT 9999 FEW073 22/12 Q1012
BLU NOSIG=

ZCZC
SA041225 EHEH     EINDHOVEN/EINDHOVEN   NLD   22 m.
METAR EHEH 041225Z AUTO VRB06KT 9999 FEW081 23/11 Q1013
BLU TEMPO 4000 SHRA SCT025CB=

ZCZC
SA041225 EHVK     VOLKEL/VOLKEL   NLD   21 m.
METAR EHVK 041225Z AUTO VRB04KT 9999 OVC095 21/12 Q1013
BLU NOSIG=

ZCZC
SA041225 EHBK     MAASTRICHT/MAASTRICHT-AACHEN   NLD   114 m.
METAR EHBK 041225Z AUTO VRB04KT 9999 NSC 21/13 Q1013 NOSIG=

ZCZC
SA041225 EHFZ     F16-A   NLD   43 m.
METAR EHFZ 041225Z NIL=

ZCZC
SA041225 EHKV     K14-FA-1C   NLD   41 m.
METAR EHKV 041225Z AUTO 08012KT 9999 NCD 17/13 Q1014=

ZCZC
SA041225 EHMG     L9-FF-1   NLD   44 m.
METAR EHMG 041225Z AUTO 09011KT 9999 FEW028 17/12 Q1015=

ZCZC
SA041225 EHMA     AWG-1   NLD   40 m.
METAR EHMA 041225Z AUTO 06011KT 350V140 9999 NCD 18/11 Q1014=

ZCZC
SA041225 EHDV     D15-FA-1   NLD   42 m.
METAR EHDV 041225Z AUTO 16010KT 9999 NCD 17/10 Q1015=

ZCZC
SA041225 EHAK     A12-CPP   NLD   48 m.
METAR EHAK 041225Z AUTO 22013KT 9999 OVC000/// 17/12 Q1015=

ZCZC
SA041225 EHQE     HOORN-A   NLD   50 m.
METAR EHQE 041225Z AUTO /////KT 9999 NCD 18/11 Q1014=

ZCZC
SA041225 EHJA     J6-A   NLD   45 m.
METAR EHJA 041225Z AUTO 03012KT 300V080 9999 NCD 17/10 Q1015=

ZCZC
SA041225 EHPG     P11-B   NLD   41 m.
METAR EHPG 041225Z AUTO 06008KT 9999 NCD 17/13 Q1013=

ZCZC
SA041225 EHHW     BUITENGAATS/BG-OHVS2      42 m.
METAR EHHW 041225Z AUTO 09005KT 020V160 9999 NSC 17/10 Q1015=

04/08/2021 14.30 uur LT